createdAt,value
2018-09-01T00:02:57.867Z,73.45
2018-09-01T00:08:00.923Z,73.16
2018-09-01T00:13:03.991Z,73.57
2018-09-01T00:18:07.780Z,74.15
2018-09-01T00:23:10.876Z,73.70
2018-09-01T00:28:13.919Z,74.05
2018-09-01T00:33:16.958Z,74.02
2018-09-01T00:38:25.792Z,74.51
2018-09-01T00:43:28.834Z,73.57
2018-09-01T00:48:31.845Z,73.51
2018-09-01T00:53:34.949Z,73.40
2018-09-01T00:58:37.957Z,73.86
2018-09-01T01:03:41.816Z,73.79
2018-09-01T01:08:45.629Z,74.27
2018-09-01T01:13:49.228Z,74.53
2018-09-01T01:18:52.925Z,74.43
2018-09-01T01:23:56.655Z,74.68
2018-09-01T01:28:59.708Z,74.38
2018-09-01T01:34:02.767Z,74.89
2018-09-01T01:39:06.752Z,75.24
2018-09-01T01:44:09.864Z,75.59
2018-09-01T01:49:12.893Z,75.41
2018-09-01T01:54:15.985Z,75.54
2018-09-01T01:59:18.996Z,74.98
2018-09-01T02:04:21.990Z,75.58
2018-09-01T02:09:25.018Z,75.81
2018-09-01T02:14:28.045Z,75.87
2018-09-01T02:19:31.166Z,76.00
2018-09-01T02:24:34.247Z,76.56
2018-09-01T02:29:38.167Z,76.09
2018-09-01T02:34:41.191Z,76.31
2018-09-01T02:39:44.373Z,74.78
2018-09-01T02:44:47.447Z,75.40
2018-09-01T02:49:50.599Z,75.59
2018-09-01T02:54:53.666Z,75.12
2018-09-01T02:59:56.717Z,75.45
2018-09-01T03:04:59.801Z,75.18
2018-09-01T03:10:03.258Z,75.87
2018-09-01T03:15:06.953Z,75.79
2018-09-01T03:20:10.011Z,74.98
2018-09-01T03:25:13.053Z,75.28
2018-09-01T03:30:16.110Z,74.65
2018-09-01T03:35:19.290Z,74.50
2018-09-01T03:40:22.337Z,75.25
2018-09-01T03:45:25.401Z,76.10
2018-09-01T03:50:28.484Z,75.72
2018-09-01T03:55:31.531Z,76.20
2018-09-01T04:00:34.766Z,76.86
2018-09-01T04:05:37.842Z,77.15
2018-09-01T04:10:40.916Z,76.76
2018-09-01T04:15:43.941Z,76.38
2018-09-01T04:20:46.981Z,76.52
2018-09-01T04:25:50.026Z,76.50
2018-09-01T04:30:55.573Z,76.91
2018-09-01T04:36:01.675Z,76.65
2018-09-01T04:41:04.909Z,76.15
2018-09-01T04:46:07.937Z,76.27
2018-09-01T04:51:10.966Z,77.15
2018-09-01T04:56:14.264Z,77.57
2018-09-01T05:01:17.469Z,77.27
2018-09-01T05:06:20.512Z,77.33
2018-09-01T05:11:23.633Z,77.66
2018-09-01T05:16:26.829Z,76.76
2018-09-01T05:21:31.311Z,76.36
2018-09-01T05:26:34.536Z,76.38
2018-09-01T05:31:37.576Z,75.08
2018-09-01T05:36:40.893Z,74.53
2018-09-01T05:41:44.045Z,74.47
2018-09-01T05:46:47.218Z,74.61
2018-09-01T05:51:50.578Z,74.04
2018-09-01T05:56:54.245Z,73.27
2018-09-01T06:01:57.308Z,72.86
2018-09-01T06:07:00.513Z,71.32
2018-09-01T06:12:03.747Z,71.08
2018-09-01T06:17:06.778Z,70.31
2018-09-01T06:22:09.870Z,70.82
2018-09-01T06:27:19.277Z,70.92
2018-09-01T06:32:24.039Z,70.60
2018-09-01T06:37:28.560Z,69.31
2018-09-01T06:42:31.829Z,69.44
2018-09-01T06:47:34.997Z,69.26
2018-09-01T06:52:38.157Z,69.16
2018-09-01T06:57:41.231Z,68.75
2018-09-01T07:02:44.296Z,68.70
2018-09-01T07:07:47.663Z,68.21
2018-09-01T07:12:50.826Z,66.59
2018-09-01T07:17:53.935Z,65.92
2018-09-01T07:22:58.589Z,65.55
2018-09-01T07:28:01.686Z,64.98
2018-09-01T07:33:04.833Z,64.49
2018-09-01T07:38:08.610Z,63.57
2018-09-01T07:43:11.714Z,63.03
2018-09-01T07:48:14.833Z,62.92
2018-09-01T07:53:18.129Z,62.59
2018-09-01T07:58:21.452Z,62.27
2018-09-01T08:03:24.601Z,62.75
2018-09-01T08:08:27.673Z,61.39
2018-09-01T08:13:30.724Z,62.53
2018-09-01T08:18:33.809Z,62.23
2018-09-01T08:23:36.843Z,60.63
2018-09-01T08:28:39.921Z,60.28
2018-09-01T08:33:43.056Z,60.33
2018-09-01T08:38:46.060Z,60.22
2018-09-01T08:43:49.458Z,60.64
2018-09-01T08:48:52.569Z,60.70
2018-09-01T08:53:55.646Z,61.13
2018-09-01T08:58:58.698Z,60.59
2018-09-01T09:04:01.760Z,60.25
2018-09-01T09:09:06.241Z,59.65
2018-09-01T09:14:09.338Z,59.13
2018-09-01T09:19:12.459Z,60.13
2018-09-01T09:24:15.532Z,58.86
2018-09-01T09:29:18.719Z,57.96
2018-09-01T09:34:21.791Z,58.30
2018-09-01T09:39:24.884Z,58.99
2018-09-01T09:44:28.035Z,57.25
2018-09-01T09:49:31.217Z,57.59
2018-09-01T09:54:34.431Z,58.79
2018-09-01T09:59:38.201Z,59.71
2018-09-01T10:04:41.242Z,60.82
2018-09-01T10:09:44.333Z,60.85
2018-09-01T10:14:47.359Z,59.93
2018-09-01T10:19:51.295Z,60.42
2018-09-01T10:24:56.034Z,59.48
2018-09-01T10:30:00.423Z,58.52
2018-09-01T10:35:03.616Z,57.15
2018-09-01T10:40:06.706Z,55.77
2018-09-01T10:45:09.840Z,53.99
2018-09-01T10:50:12.891Z,55.08
2018-09-01T10:55:15.981Z,55.85
2018-09-01T11:00:20.044Z,54.91
2018-09-01T11:05:23.842Z,53.74
2018-09-01T11:10:27.712Z,51.51
2018-09-01T11:15:31.428Z,50.63
2018-09-01T11:20:35.563Z,49.20
2018-09-01T11:25:39.199Z,48.91
2018-09-01T11:30:42.952Z,49.35
2018-09-01T11:35:46.080Z,47.09
2018-09-01T11:40:49.116Z,47.82
2018-09-01T11:45:52.155Z,47.20
2018-09-01T11:50:55.242Z,48.13
2018-09-01T11:55:58.448Z,48.59
2018-09-01T12:01:01.505Z,48.08
2018-09-01T12:06:04.630Z,47.98
2018-09-01T12:11:07.807Z,48.18
2018-09-01T12:16:10.929Z,48.36
2018-09-01T12:21:14.241Z,49.03
2018-09-01T12:26:17.306Z,48.07
2018-09-01T12:31:20.346Z,45.97
2018-09-01T12:36:24.292Z,44.86
2018-09-01T12:41:27.399Z,44.07
2018-09-01T12:46:30.494Z,43.47
2018-09-01T12:51:33.550Z,42.62
2018-09-01T12:56:36.674Z,41.41
2018-09-01T13:01:39.720Z,41.59
2018-09-01T13:06:42.952Z,42.26
2018-09-01T13:11:46.042Z,42.98
2018-09-01T13:16:49.114Z,42.87
2018-09-01T13:21:52.188Z,44.80
2018-09-01T13:26:55.246Z,45.35
2018-09-01T13:31:58.338Z,45.23
2018-09-01T13:37:01.408Z,45.12
2018-09-01T13:42:04.598Z,45.39
2018-09-01T13:47:07.691Z,46.32
2018-09-01T13:52:10.748Z,44.86
2018-09-01T13:57:13.853Z,43.26
2018-09-01T14:02:16.951Z,45.85
2018-09-01T14:07:20.086Z,46.26
2018-09-01T14:12:23.178Z,45.14
2018-09-01T14:17:26.389Z,45.11
2018-09-01T14:22:29.422Z,44.66
2018-09-01T14:27:32.461Z,42.95
2018-09-01T14:32:35.529Z,43.31
2018-09-01T14:37:38.818Z,42.51
2018-09-01T14:42:41.862Z,42.88
2018-09-01T14:47:44.899Z,42.75
2018-09-01T14:52:47.979Z,43.10
2018-09-01T14:57:51.015Z,44.59
2018-09-01T15:02:54.062Z,44.91
2018-09-01T15:07:57.178Z,45.89
2018-09-01T15:13:00.330Z,46.91
2018-09-01T15:18:03.400Z,46.22
2018-09-01T15:23:06.462Z,44.29
2018-09-01T15:28:09.610Z,42.65
2018-09-01T15:33:12.638Z,42.36
2018-09-01T15:38:15.723Z,42.97
2018-09-01T15:43:19.648Z,43.82
2018-09-01T15:48:22.684Z,43.16
2018-09-01T15:53:25.792Z,43.14
2018-09-01T15:58:28.867Z,42.34
2018-09-01T16:03:32.006Z,42.94
2018-09-01T16:08:35.095Z,43.41
2018-09-01T16:13:38.166Z,44.67
2018-09-01T16:18:41.232Z,44.38
2018-09-01T16:23:44.305Z,44.81
2018-09-01T16:28:47.508Z,44.45
2018-09-01T16:33:50.636Z,44.81
2018-09-01T16:38:53.701Z,45.63
2018-09-01T16:43:56.854Z,46.66
2018-09-01T16:48:59.909Z,47.47
2018-09-01T16:54:03.120Z,49.04
2018-09-01T16:59:06.232Z,49.64
2018-09-01T17:04:09.273Z,50.00
2018-09-01T17:09:12.402Z,50.76
2018-09-01T17:14:15.506Z,51.18
2018-09-01T17:19:21.842Z,51.74
2018-09-01T17:24:25.072Z,52.09
2018-09-01T17:29:29.632Z,52.39
2018-09-01T17:34:32.770Z,52.54
2018-09-01T17:39:35.895Z,52.73
2018-09-01T17:44:39.042Z,52.84
2018-09-01T17:49:43.282Z,52.40
2018-09-01T17:54:46.415Z,52.27
2018-09-01T17:59:49.490Z,52.88
2018-09-01T18:04:52.566Z,52.62
2018-09-01T18:09:55.585Z,52.95
2018-09-01T18:14:58.705Z,52.32
2018-09-01T18:20:01.751Z,52.09
2018-09-01T18:25:04.842Z,52.39
2018-09-01T18:30:08.473Z,52.13
2018-09-01T18:35:11.687Z,51.83
2018-09-01T18:40:15.098Z,51.91
2018-09-01T18:50:26.562Z,52.37
2018-09-01T18:55:30.698Z,52.73
2018-09-01T19:00:35.964Z,53.24
2018-09-01T19:05:39.786Z,53.55
2018-09-01T19:10:43.238Z,54.08
2018-09-01T19:15:47.214Z,54.74
2018-09-01T19:20:50.442Z,54.81
2018-09-01T19:25:54.581Z,54.94
2018-09-01T19:30:58.505Z,56.01
2018-09-01T19:36:02.272Z,56.26
2018-09-01T19:41:05.931Z,56.66
2018-09-01T19:46:09.304Z,56.84
2018-09-01T19:51:13.183Z,57.09
2018-09-01T19:56:16.772Z,57.70
2018-09-01T20:01:20.893Z,57.69
2018-09-01T20:06:24.118Z,58.08
2018-09-01T20:11:27.648Z,57.67
2018-09-01T20:16:31.319Z,57.45
2018-09-01T20:21:35.345Z,57.35
2018-09-01T20:26:39.294Z,57.70
2018-09-01T20:31:43.009Z,58.06
2018-09-01T20:36:46.148Z,58.10
2018-09-01T20:41:49.162Z,58.06
2018-09-01T20:46:52.298Z,57.90
2018-09-01T20:51:55.350Z,57.68
2018-09-01T20:56:58.429Z,57.94
2018-09-01T21:02:02.585Z,57.78
2018-09-01T21:07:05.765Z,57.58
2018-09-01T21:12:08.819Z,57.87
2018-09-01T21:17:12.257Z,58.85
2018-09-01T21:22:15.281Z,59.62
2018-09-01T21:27:18.354Z,60.06
2018-09-01T21:32:21.427Z,61.05
2018-09-01T21:37:24.440Z,61.46
2018-09-01T21:42:27.469Z,61.45
2018-09-01T21:47:30.524Z,62.11
2018-09-01T21:52:33.575Z,61.77
2018-09-01T21:57:36.631Z,62.86
2018-09-01T22:02:39.710Z,62.91
2018-09-01T22:07:42.858Z,63.10
2018-09-01T22:12:45.987Z,64.09
2018-09-01T22:17:49.122Z,64.18
2018-09-01T22:22:52.211Z,64.36
2018-09-01T22:27:55.225Z,65.07
2018-09-01T22:32:58.368Z,65.92
2018-09-01T22:38:01.403Z,66.17
2018-09-01T22:43:04.521Z,66.73
2018-09-01T22:48:07.595Z,66.50
2018-09-01T22:53:10.711Z,66.85
2018-09-01T22:58:13.764Z,67.40
2018-09-01T23:03:16.806Z,67.30
2018-09-01T23:08:19.860Z,67.41
2018-09-01T23:13:22.927Z,67.91
2018-09-01T23:18:25.990Z,68.07
2018-09-01T23:23:29.033Z,68.24
2018-09-01T23:28:32.069Z,67.60
2018-09-01T23:33:35.154Z,67.90
2018-09-01T23:38:38.102Z,68.32
2018-09-01T23:43:41.140Z,68.37
2018-09-01T23:48:44.132Z,69.04
2018-09-01T23:53:47.177Z,69.22
2018-09-01T23:58:50.235Z,69.37
